createdAt,value
2023-01-13T00:02:18.299Z,29.90
2023-01-13T00:04:49.907Z,31.20
2023-01-13T00:07:19.472Z,30.60
2023-01-13T00:09:52.126Z,30.30
2023-01-13T00:12:20.735Z,29.80
2023-01-13T00:14:52.464Z,29.90
2023-01-13T00:17:21.354Z,29.00
2023-01-13T00:19:53.130Z,29.60
2023-01-13T00:22:23.481Z,30.70
2023-01-13T00:24:54.699Z,29.60
2023-01-13T00:27:26.896Z,28.80
2023-01-13T00:30:01.281Z,27.90
2023-01-13T00:32:30.072Z,29.80
2023-01-13T00:35:01.436Z,29.50
2023-01-13T00:37:30.053Z,28.00
2023-01-13T00:40:03.377Z,28.80
2023-01-13T00:43:13.126Z,28.00
2023-01-13T00:45:44.304Z,28.10
2023-01-13T00:48:15.516Z,28.50
2023-01-13T00:51:04.433Z,29.90
2023-01-13T00:53:41.686Z,28.10
2023-01-13T00:56:24.355Z,27.00
2023-01-13T00:58:59.137Z,26.00
2023-01-13T01:01:28.663Z,26.90
2023-01-13T01:03:57.502Z,27.20
2023-01-13T01:06:27.613Z,26.50
2023-01-13T01:08:57.637Z,27.30
2023-01-13T01:11:29.437Z,28.30
2023-01-13T01:14:03.750Z,25.80
2023-01-13T01:16:35.978Z,28.90
2023-01-13T01:19:05.300Z,27.10
2023-01-13T01:21:34.960Z,26.40
2023-01-13T01:24:04.665Z,27.50
2023-01-13T01:26:35.015Z,27.60
2023-01-13T01:29:05.915Z,27.50
2023-01-13T01:31:35.562Z,27.30
2023-01-13T01:34:04.368Z,27.60
2023-01-13T01:36:36.060Z,27.60
2023-01-13T01:39:05.729Z,27.80
2023-01-13T01:41:37.250Z,24.60
2023-01-13T01:44:29.052Z,24.70
2023-01-13T01:50:32.080Z,24.20
2023-01-13T01:53:12.571Z,25.10
2023-01-13T01:55:42.455Z,26.60
2023-01-13T01:58:18.625Z,24.90
2023-01-13T02:00:49.851Z,24.00
2023-01-13T02:03:20.483Z,23.90
2023-01-13T02:05:50.270Z,22.40
2023-01-13T02:08:20.410Z,22.80
2023-01-13T02:10:53.988Z,23.30
2023-01-13T02:13:23.613Z,24.00
2023-01-13T02:16:20.458Z,24.60
2023-01-13T02:19:25.798Z,23.80
2023-01-13T02:22:26.970Z,24.60
2023-01-13T02:25:37.037Z,25.50
2023-01-13T02:29:09.512Z,25.40
2023-01-13T02:31:50.498Z,25.10
2023-01-13T02:34:48.182Z,24.00
2023-01-13T02:37:32.114Z,23.20
2023-01-13T02:40:08.929Z,24.30
2023-01-13T02:43:10.199Z,23.40
2023-01-13T02:45:49.975Z,24.10
2023-01-13T02:48:23.146Z,23.70
2023-01-13T02:51:04.889Z,23.70
2023-01-13T02:53:53.462Z,22.60
2023-01-13T02:56:25.320Z,23.80
2023-01-13T02:59:00.044Z,23.80
2023-01-13T03:01:29.241Z,25.20
2023-01-13T03:04:02.542Z,23.90
2023-01-13T03:07:04.609Z,24.30
2023-01-13T03:09:59.027Z,22.00
2023-01-13T03:12:30.419Z,24.60
2023-01-13T03:15:40.563Z,24.90
2023-01-13T03:18:27.598Z,25.40
2023-01-13T03:24:24.865Z,23.60
2023-01-13T03:27:05.050Z,23.40
2023-01-13T03:29:41.616Z,24.70
2023-01-13T03:32:40.503Z,24.20
2023-01-13T03:35:24.396Z,23.90
2023-01-13T03:38:06.638Z,24.50
2023-01-13T03:40:44.494Z,24.80
2023-01-13T03:43:39.285Z,24.60
2023-01-13T03:46:17.009Z,24.90
2023-01-13T03:48:51.344Z,26.40
2023-01-13T03:51:24.915Z,27.10
2023-01-13T03:54:01.127Z,25.90
2023-01-13T03:56:38.913Z,25.80
2023-01-13T03:59:14.674Z,25.80
2023-01-13T04:02:01.873Z,25.50
2023-01-13T04:04:45.451Z,25.80
2023-01-13T04:07:51.915Z,26.20
2023-01-13T04:10:29.172Z,25.30
2023-01-13T04:13:08.249Z,22.70
2023-01-13T04:15:40.470Z,21.70
2023-01-13T04:20:47.637Z,22.50
2023-01-13T04:23:20.401Z,22.30
2023-01-13T04:25:52.732Z,22.60
2023-01-13T04:28:24.067Z,21.80
2023-01-13T04:30:55.183Z,22.50
2023-01-13T04:33:23.922Z,21.60
2023-01-13T04:35:53.021Z,22.60
2023-01-13T04:38:24.234Z,23.40
2023-01-13T04:40:52.887Z,21.80
2023-01-13T04:43:24.438Z,22.50
2023-01-13T04:45:53.681Z,22.70
2023-01-13T04:48:24.843Z,23.50
2023-01-13T04:50:56.569Z,22.70
2023-01-13T04:53:26.192Z,24.40
2023-01-13T04:55:56.297Z,24.10
2023-01-13T04:58:25.103Z,24.00
2023-01-13T05:00:57.270Z,24.00
2023-01-13T05:03:26.978Z,22.10
2023-01-13T05:05:55.925Z,23.50
2023-01-13T05:08:24.581Z,24.20
2023-01-13T05:10:54.461Z,24.60
2023-01-13T05:13:41.943Z,23.90
2023-01-13T05:16:31.246Z,23.80
2023-01-13T05:19:03.146Z,23.20
2023-01-13T05:21:50.192Z,25.00
2023-01-13T05:24:38.943Z,25.30
2023-01-13T05:27:08.588Z,24.90
2023-01-13T05:29:37.359Z,24.40
2023-01-13T05:32:08.511Z,23.50
2023-01-13T05:34:42.457Z,23.60
2023-01-13T05:37:13.215Z,23.90
2023-01-13T05:40:00.868Z,24.10
2023-01-13T05:42:48.081Z,25.80
2023-01-13T05:45:18.871Z,23.30
2023-01-13T05:47:47.975Z,24.10
2023-01-13T05:50:20.674Z,22.90
2023-01-13T05:52:51.926Z,23.70
2023-01-13T05:55:23.499Z,24.00
2023-01-13T05:57:52.929Z,24.90
2023-01-13T06:00:24.956Z,25.30
2023-01-13T06:02:56.810Z,24.50
2023-01-13T06:05:27.206Z,25.00
2023-01-13T06:08:03.370Z,23.20
2023-01-13T06:10:32.469Z,24.90
2023-01-13T06:13:01.693Z,24.00
2023-01-13T06:15:30.401Z,23.60
2023-01-13T06:18:02.735Z,24.30
2023-01-13T06:20:32.584Z,24.80
2023-01-13T06:23:03.229Z,24.40
2023-01-13T06:25:41.375Z,23.80
2023-01-13T06:28:13.031Z,26.20
2023-01-13T06:30:49.250Z,24.20
2023-01-13T06:33:24.404Z,23.80
2023-01-13T06:35:58.722Z,23.10
2023-01-13T06:38:35.285Z,23.50
2023-01-13T06:41:06.511Z,25.10
2023-01-13T06:43:35.827Z,23.90
2023-01-13T06:46:05.765Z,25.10
2023-01-13T06:48:37.630Z,26.00
2023-01-13T06:51:10.619Z,24.60
2023-01-13T06:56:09.925Z,25.80
2023-01-13T06:58:38.828Z,25.10
2023-01-13T07:01:10.277Z,24.20
2023-01-13T07:03:42.031Z,25.60
2023-01-13T07:06:13.192Z,24.60
2023-01-13T07:08:42.428Z,26.20
2023-01-13T07:11:14.598Z,25.50
2023-01-13T07:14:02.114Z,26.70
2023-01-13T07:16:30.702Z,27.50
2023-01-13T07:19:01.602Z,26.10
2023-01-13T07:21:30.355Z,30.60
2023-01-13T07:23:59.147Z,29.60
2023-01-13T07:26:27.889Z,29.10
2023-01-13T07:28:59.140Z,29.00
2023-01-13T07:31:34.546Z,30.00
2023-01-13T07:34:07.933Z,28.90
2023-01-13T07:36:36.795Z,27.80
2023-01-13T07:39:05.873Z,29.00
2023-01-13T07:41:52.940Z,26.80
2023-01-13T07:44:22.152Z,29.10
2023-01-13T07:46:51.202Z,27.90
2023-01-13T07:49:22.534Z,28.80
2023-01-13T07:51:51.125Z,27.00
2023-01-13T07:54:25.547Z,28.20
2023-01-13T07:57:00.563Z,29.20
2023-01-13T07:59:29.863Z,29.10
2023-01-13T08:01:58.689Z,26.60
2023-01-13T08:04:30.058Z,24.60
2023-01-13T08:06:58.801Z,25.40
2023-01-13T08:09:30.245Z,25.30
2023-01-13T08:12:18.049Z,26.50
2023-01-13T08:14:46.711Z,27.00
2023-01-13T08:17:15.720Z,28.10
2023-01-13T08:19:44.272Z,26.40
2023-01-13T08:22:13.231Z,26.10
2023-01-13T08:24:41.791Z,27.60
2023-01-13T08:27:10.999Z,26.60
2023-01-13T08:29:39.509Z,29.50
2023-01-13T08:32:08.077Z,30.60
2023-01-13T08:34:36.577Z,28.10
2023-01-13T08:37:05.465Z,30.00
2023-01-13T08:39:33.884Z,28.70
2023-01-13T08:42:04.078Z,26.00
2023-01-13T08:44:33.556Z,23.70
2023-01-13T08:47:02.729Z,23.60
2023-01-13T08:49:33.267Z,28.10
2023-01-13T08:52:02.990Z,31.00
2023-01-13T08:54:32.275Z,33.10
2023-01-13T08:57:04.070Z,33.10
2023-01-13T08:59:34.240Z,30.90
2023-01-13T09:02:17.791Z,27.20
2023-01-13T09:04:51.230Z,43.10
2023-01-13T09:07:21.096Z,36.50
2023-01-13T09:09:49.653Z,28.50
2023-01-13T09:12:37.353Z,32.70
2023-01-13T09:15:10.858Z,28.70
2023-01-13T09:17:39.775Z,27.90
2023-01-13T09:20:08.940Z,31.30
2023-01-13T09:22:40.916Z,37.60
2023-01-13T09:25:10.394Z,37.00
2023-01-13T09:27:40.144Z,31.70
2023-01-13T09:30:09.208Z,34.70
2023-01-13T09:32:38.666Z,32.20
2023-01-13T09:35:08.906Z,33.30
2023-01-13T09:37:39.993Z,24.80
2023-01-13T09:40:18.329Z,25.80
2023-01-13T09:43:13.363Z,23.70
2023-01-13T09:45:51.847Z,23.20
2023-01-13T09:48:25.106Z,18.70
2023-01-13T09:51:09.794Z,26.50
2023-01-13T09:53:45.082Z,23.80
2023-01-13T09:56:13.565Z,25.30
2023-01-13T09:58:42.434Z,25.60
2023-01-13T10:01:21.149Z,25.80
2023-01-13T10:03:51.277Z,24.30
2023-01-13T10:06:24.799Z,23.00
2023-01-13T10:08:56.304Z,23.50
2023-01-13T10:11:49.678Z,22.50
2023-01-13T10:14:27.186Z,21.90
2023-01-13T10:17:22.094Z,20.40
2023-01-13T10:19:59.785Z,21.90
2023-01-13T10:23:06.054Z,20.40
2023-01-13T10:25:44.840Z,23.40
2023-01-13T10:28:18.458Z,23.50
2023-01-13T10:30:48.284Z,24.20
2023-01-13T10:33:21.453Z,24.50
2023-01-13T10:36:04.360Z,24.60
2023-01-13T10:38:51.025Z,25.80
2023-01-13T10:41:27.275Z,22.40
2023-01-13T10:44:09.818Z,21.50
2023-01-13T10:46:53.307Z,22.30
2023-01-13T10:49:40.991Z,23.00
2023-01-13T10:52:27.572Z,20.90
2023-01-13T10:54:56.872Z,22.00
2023-01-13T10:57:27.664Z,24.40
2023-01-13T10:59:56.540Z,24.60
2023-01-13T11:02:36.251Z,23.60
2023-01-13T11:05:23.717Z,19.10
2023-01-13T11:07:55.160Z,18.90
2023-01-13T11:10:30.219Z,17.60
2023-01-13T11:13:29.858Z,17.10
2023-01-13T11:16:09.306Z,18.80
2023-01-13T11:19:12.378Z,18.00
2023-01-13T11:21:55.313Z,17.10
2023-01-13T11:27:14.202Z,12.30
2023-01-13T11:30:12.256Z,12.40
2023-01-13T11:33:24.267Z,9.90
2023-01-13T11:36:20.693Z,9.00
2023-01-13T11:39:03.377Z,9.20
2023-01-13T11:42:08.698Z,13.80
2023-01-13T11:44:49.695Z,14.20
2023-01-13T11:47:28.124Z,15.20
2023-01-13T11:49:57.500Z,14.70
2023-01-13T11:52:48.130Z,15.40
2023-01-13T11:55:40.116Z,12.70
2023-01-13T11:58:21.106Z,14.40
2023-01-13T12:01:25.445Z,13.50
2023-01-13T12:04:21.810Z,12.90
2023-01-13T12:07:07.689Z,13.00
2023-01-13T12:10:03.759Z,13.40
2023-01-13T12:12:33.977Z,12.40
2023-01-13T12:15:24.837Z,12.80
2023-01-13T12:18:21.543Z,11.30
2023-01-13T12:21:09.543Z,11.70
2023-01-13T12:23:46.933Z,10.80
2023-01-13T12:26:17.052Z,11.70
2023-01-13T12:28:45.586Z,10.80
2023-01-13T12:31:19.047Z,10.80
2023-01-13T12:33:59.740Z,10.70
2023-01-13T12:36:35.219Z,11.90
2023-01-13T12:39:20.221Z,12.00
2023-01-13T12:42:24.419Z,10.90
2023-01-13T12:45:13.112Z,11.80
2023-01-13T12:47:47.023Z,11.90
2023-01-13T12:50:28.265Z,10.60
2023-01-13T12:53:21.870Z,11.50
2023-01-13T12:55:53.992Z,10.30
2023-01-13T12:58:29.220Z,10.50
2023-01-13T13:01:07.061Z,11.00
2023-01-13T13:03:36.919Z,8.10
2023-01-13T13:06:24.067Z,7.60
2023-01-13T13:09:28.357Z,7.40
2023-01-13T13:12:03.326Z,7.30
2023-01-13T13:14:55.025Z,7.90
2023-01-13T13:17:30.130Z,7.50
2023-01-13T13:20:01.601Z,7.90
2023-01-13T13:22:43.680Z,8.10
2023-01-13T13:25:24.617Z,10.50
2023-01-13T13:28:16.643Z,13.10
2023-01-13T13:30:56.790Z,12.70
2023-01-13T13:33:50.516Z,12.60
2023-01-13T13:36:44.999Z,13.20
2023-01-13T13:39:43.204Z,13.20
2023-01-13T13:42:36.162Z,12.30
2023-01-13T13:45:45.800Z,12.80
2023-01-13T13:48:27.853Z,12.30
2023-01-13T13:51:03.101Z,12.80
2023-01-13T13:53:41.971Z,12.20
2023-01-13T13:56:21.000Z,13.50
2023-01-13T13:58:50.513Z,12.90
2023-01-13T14:01:28.814Z,14.70
2023-01-13T14:04:20.253Z,14.40
2023-01-13T14:06:56.212Z,14.20
2023-01-13T14:09:29.158Z,13.80
2023-01-13T14:12:03.184Z,13.60
2023-01-13T14:14:31.670Z,15.00
2023-01-13T14:17:00.181Z,14.40
2023-01-13T14:19:33.389Z,15.50
2023-01-13T14:22:07.191Z,14.10
2023-01-13T14:24:49.457Z,14.60
2023-01-13T14:27:21.640Z,14.20
2023-01-13T14:29:58.317Z,14.90
2023-01-13T14:32:36.657Z,14.30
2023-01-13T14:35:07.618Z,14.80
2023-01-13T14:37:42.048Z,16.70
2023-01-13T14:40:33.676Z,14.50
2023-01-13T14:43:04.408Z,15.70
2023-01-13T14:45:33.654Z,15.50
2023-01-13T14:48:10.058Z,14.50
2023-01-13T14:50:43.775Z,14.80
2023-01-13T14:53:48.363Z,14.20
2023-01-13T14:57:10.211Z,15.40
2023-01-13T15:00:14.892Z,14.80
2023-01-13T15:02:49.030Z,16.30
2023-01-13T15:05:24.003Z,16.70
2023-01-13T15:08:02.719Z,16.30
2023-01-13T15:11:02.134Z,16.30
2023-01-13T15:13:52.873Z,15.00
2023-01-13T15:16:26.996Z,16.10
2023-01-13T15:18:57.008Z,16.20
2023-01-13T15:21:26.270Z,16.90
2023-01-13T15:24:00.741Z,18.20
2023-01-13T15:26:34.111Z,17.20
2023-01-13T15:29:05.446Z,15.40
2023-01-13T15:31:42.558Z,16.60
2023-01-13T15:34:12.211Z,15.60
2023-01-13T15:36:45.067Z,15.20
2023-01-13T15:39:17.104Z,16.20
2023-01-13T15:42:10.342Z,16.80
2023-01-13T15:45:05.580Z,17.00
2023-01-13T15:47:35.160Z,15.70
2023-01-13T15:50:07.138Z,16.90
2023-01-13T15:52:36.556Z,17.20
2023-01-13T15:55:09.186Z,18.40
2023-01-13T15:57:46.340Z,16.30
2023-01-13T16:00:22.004Z,16.40
2023-01-13T16:02:51.881Z,17.40
2023-01-13T16:05:24.139Z,17.00
2023-01-13T16:07:56.821Z,17.20
2023-01-13T16:10:28.245Z,18.20
2023-01-13T16:12:59.537Z,18.30
2023-01-13T16:15:28.789Z,17.50
2023-01-13T16:18:00.070Z,17.80
2023-01-13T16:20:30.264Z,17.60
2023-01-13T16:22:59.371Z,20.10
2023-01-13T16:25:31.860Z,19.60
2023-01-13T16:28:04.614Z,21.90
2023-01-13T16:30:36.307Z,22.70
2023-01-13T16:33:08.471Z,23.40
2023-01-13T16:35:43.840Z,24.90
2023-01-13T16:38:29.634Z,25.20
2023-01-13T16:41:01.593Z,24.90
2023-01-13T16:43:32.316Z,23.90
2023-01-13T16:46:01.732Z,24.60
2023-01-13T16:48:31.023Z,23.80
2023-01-13T16:51:01.956Z,23.90
2023-01-13T16:53:31.249Z,25.20
2023-01-13T16:56:02.674Z,26.00
2023-01-13T16:58:37.667Z,27.20
2023-01-13T17:01:06.947Z,24.70
2023-01-13T17:03:49.354Z,26.40
2023-01-13T17:06:29.665Z,26.60
2023-01-13T17:09:08.577Z,25.60
2023-01-13T17:11:40.854Z,25.20
2023-01-13T17:14:19.157Z,26.00
2023-01-13T17:16:54.727Z,25.90
2023-01-13T17:19:26.389Z,27.00
2023-01-13T17:22:03.190Z,28.60
2023-01-13T17:24:37.789Z,27.50
2023-01-13T17:27:08.984Z,27.00
2023-01-13T17:29:40.064Z,27.70
2023-01-13T17:32:14.897Z,26.50
2023-01-13T17:34:50.295Z,25.80
2023-01-13T17:37:23.852Z,24.40
2023-01-13T17:39:55.929Z,24.90
2023-01-13T17:42:28.027Z,23.60
2023-01-13T17:44:57.231Z,23.70
2023-01-13T17:47:32.121Z,25.50
2023-01-13T17:50:01.501Z,25.00
2023-01-13T17:55:17.489Z,23.50
2023-01-13T17:57:48.840Z,25.40
2023-01-13T18:00:18.648Z,24.90
2023-01-13T18:02:54.674Z,25.50
2023-01-13T18:05:26.564Z,24.90
2023-01-13T18:07:55.770Z,24.30
2023-01-13T18:10:25.118Z,26.90
2023-01-13T18:12:54.244Z,26.60
2023-01-13T18:15:23.347Z,26.30
2023-01-13T18:17:52.570Z,29.10
2023-01-13T18:20:40.666Z,27.80
2023-01-13T18:23:37.079Z,28.00
2023-01-13T18:26:39.242Z,28.30
2023-01-13T18:29:08.464Z,29.00
2023-01-13T18:31:37.764Z,30.50
2023-01-13T18:34:09.115Z,31.10
2023-01-13T18:36:39.098Z,30.50
2023-01-13T18:39:11.335Z,35.80
2023-01-13T18:42:02.219Z,33.00
2023-01-13T18:44:31.475Z,31.40
2023-01-13T18:47:00.811Z,34.60
2023-01-13T18:49:30.899Z,34.40
2023-01-13T18:52:00.278Z,34.30
2023-01-13T18:54:29.679Z,29.40
2023-01-13T18:57:02.038Z,32.10
2023-01-13T18:59:33.329Z,36.20
2023-01-13T19:02:11.293Z,35.30
2023-01-13T19:04:40.687Z,38.10
2023-01-13T19:07:12.847Z,40.60
2023-01-13T19:09:42.454Z,41.70
2023-01-13T19:12:13.171Z,44.10
2023-01-13T19:14:44.252Z,47.40
2023-01-13T19:17:17.253Z,45.40
2023-01-13T19:19:52.618Z,43.90
2023-01-13T19:22:27.417Z,47.00
2023-01-13T19:24:56.767Z,46.30
2023-01-13T19:27:27.703Z,46.80
2023-01-13T19:30:01.868Z,49.40
